Ravalli County (6S5)
Hamilton, MT
Field Elevation: 3642
Lat: 45°15.05N  Long: 114°07.31W
CTAF/Unicom Freq: 122.8000
   
     For Weather-by-Phone, call 406-375-9149
Weather Advisories
3/1/2015 04:23 Z
Altimeter 30.15" Hg
Wind 014° @ 6 KT
Gusts --
Visibility 10 SM
Temperature -3° C (27° F)
Dewpoint -13° C (9° F)
Relative Humidity 46%
Density Altitude 1,995 feet
Condensation Altitude 8,642 feet
Wind Chill -7° C (19° F)
  Wind and Runways
Indicated Runway = 34
History
 
 
More Info
All DigiWx sites map
NOAA Forecast
 
Airport IQ 5010
(S59) Libby
(79S) Fort Benton
 
about DigiWx
 
FAA Disclaimer: The data displayed is for advisory purposes only and is not to be used for flight planning or operations. For official data, please call 406-375-9149 to hear the current automated AWOS voice message.
  METAR 6S5 010423Z AUTO 01006KT 10SM M03/M13 A3015